Terminal Aerodrome Forecast
Issued by NWS

Home | Current Version | Previous Version | Text Only | Print | Product List | Glossary On
Versions: 1 2 3 4 5 6 7 8 9 10 11 12 13 14 15
000
FTUS46 KSGX 281746
TAFSNA
TAF
KSNA 281746Z 2818/2918 22008KT P6SM SKC
     FM282100 28011KT P6SM SKC
     FM290200 VRB04KT P6SM SKC
     FM291200 VRB05KT P6SM SKC WS010/03030KT
     FM291600 05015KT P6SM SKC=

USA.gov is the U.S. government's official web portal to all federal, state and local government web resources and services.